Cottage Grove, OR

12:14 AM PDT on September 02, 2014 (GMT -0700)
Lost Creek | Change Station
CLOSE
Current Station
Personal Weather Station
Location: Dexter, OR
Elevation: 700 ft
Nearby Weather Stations

Elev 700 ft 43.92 °N, 122.82 °W | Updated 3 minutes ago

Clear
Clear
55.7 °F
Feels Like 55.7 °F
N
0.0
Wind Variable Wind from SSE
Gusts 0.0 mph

Today
High -- | Low -- °F
--% Chance of Precip.
Yesterday
High -- | Low -- °F
Precip. -- in
6:37 AM 7:45 PM
Waxing Crescent, 48% visible
Pressure 29.95 in
Visibility 10.0 miles
Clouds Clear
Dew Point 51 °F
Humidity 83%
Rainfall 0.00 in
Snow Depth Not available.
UV 1.0 out of 12
Pollen 2.90 out of 12
Ozone Good
PM2.5 Good
Flu Activity Not available.
METAR KEUG 020654Z AUTO 36003KT 10SM CLR 17/12 A2995 RMK AO2 SLP140 T01670122

More Conditions Fewer Conditions

Pressure 29.95 in
Visibility 10.0 miles
Clouds Clear
Dew Point 51 °F
Humidity 83%
Rainfall 0.00 in
Snow Depth Not available.
UV 1.0 out of 12
Pollen 2.90 out of 12
Ozone Good
PM2.5 Good
Flu Activity Not available.
METAR KEUG 020654Z AUTO 36003KT 10SM CLR 17/12 A2995 RMK AO2 SLP140 T01670122

More Conditions Fewer Conditions

10-Day Weather Forecast

Almanac

Astronomy

Sep. 02, 2014 Rise Set
Actual Time 6:37 AM PDT 7:45 PM PDT
Civil Twilight 6:07 AM PDT 8:15 PM PDT
Nautical Twilight 5:32 AM PDT 8:50 PM PDT
Astronomical Twilight 4:54 AM PDT 9:27 PM PDT
Moon 2:40 PM PDT No Moon Set
Length of Visible Light 14h 07m
Length of Day
13h 08m
Tomorrow will be 2m 53s shorter.
Waxing Crescent, 48% of the Moon is Illuminated
Today
Waxing Crescent
Sep 2
First Quarter
Sep 8
Full
Sep 15
Last Quarter
Sep 24
New

Today's Extremes

State Highs State Lows

Community

WunderPhotos

Upload Photos

1,749,589 photos uploaded!

WunderBlogs® & News

Nearby

Air Quality

  Air Quality AQ Index Pollutant
Yesterday Good
PM2.5
Yesterday Good
OZONE
Current Good
PM2.5
Current Good
OZONE
Monday Moderate
PM2.5
Tuesday Good
PM2.5

Snow Depth

Station Depth Elevation
Holland Meadows 0 in 4900 ft
Salt Creek Falls 0 in 4000 ft
Cascade Summit 0 in 4880 ft
Roaring River 0 in 4900 ft
Irish Taylor 0 in 5500 ft

Earthquake Activity

City Distance Mag. Time & Date
No recent earthquake activity has been reported nearby.
Minimum magnitude displayed is 2.5.

Coastal Water Temperatures

Place Temperature
No Stations Reporting

Nearby Weather Stations